sensor_id;sensor_type;location;lat;lon;timestamp;P1;durP1;ratioP1;P2;durP2;ratioP2
43771;SDS011;59066;54.782;32.024;2023-06-22T00:01:21;13.00;;;9.23;;
43771;SDS011;59066;54.782;32.024;2023-06-22T00:03:49;13.30;;;8.85;;
43771;SDS011;59066;54.782;32.024;2023-06-22T00:06:16;13.57;;;9.73;;
43771;SDS011;59066;54.782;32.024;2023-06-22T00:08:44;12.10;;;10.43;;
43771;SDS011;59066;54.782;32.024;2023-06-22T00:11:11;12.57;;;10.25;;
43771;SDS011;59066;54.782;32.024;2023-06-22T00:13:39;15.05;;;12.13;;
43771;SDS011;59066;54.782;32.024;2023-06-22T00:16:06;14.05;;;11.73;;
43771;SDS011;59066;54.782;32.024;2023-06-22T00:18:34;15.75;;;12.30;;
43771;SDS011;59066;54.782;32.024;2023-06-22T00:21:01;15.35;;;13.05;;
43771;SDS011;59066;54.782;32.024;2023-06-22T00:23:28;17.55;;;11.93;;
43771;SDS011;59066;54.782;32.024;2023-06-22T00:26:01;15.15;;;10.82;;
43771;SDS011;59066;54.782;32.024;2023-06-22T00:28:28;13.63;;;12.05;;
43771;SDS011;59066;54.782;32.024;2023-06-22T00:30:56;19.45;;;12.35;;
43771;SDS011;59066;54.782;32.024;2023-06-22T00:33:24;13.52;;;11.50;;
43771;SDS011;59066;54.782;32.024;2023-06-22T00:35:52;14.73;;;12.27;;
43771;SDS011;59066;54.782;32.024;2023-06-22T00:38:22;14.30;;;12.70;;
43771;SDS011;59066;54.782;32.024;2023-06-22T00:40:49;16.13;;;13.68;;
43771;SDS011;59066;54.782;32.024;2023-06-22T00:43:17;30.27;;;16.45;;
43771;SDS011;59066;54.782;32.024;2023-06-22T00:45:44;17.90;;;13.18;;
43771;SDS011;59066;54.782;32.024;2023-06-22T00:48:11;17.30;;;13.75;;
43771;SDS011;59066;54.782;32.024;2023-06-22T00:50:40;16.92;;;11.98;;
43771;SDS011;59066;54.782;32.024;2023-06-22T00:53:08;18.58;;;13.30;;
43771;SDS011;59066;54.782;32.024;2023-06-22T00:55:38;17.17;;;13.10;;
43771;SDS011;59066;54.782;32.024;2023-06-22T00:58:13;16.85;;;12.65;;
43771;SDS011;59066;54.782;32.024;2023-06-22T01:03:28;16.55;;;12.75;;
43771;SDS011;59066;54.782;32.024;2023-06-22T01:05:58;12.32;;;10.52;;
43771;SDS011;59066;54.782;32.024;2023-06-22T01:16:42;13.82;;;10.00;;
43771;SDS011;59066;54.782;32.024;2023-06-22T01:19:29;12.63;;;10.75;;
43771;SDS011;59066;54.782;32.024;2023-06-22T01:22:02;15.52;;;11.00;;
43771;SDS011;59066;54.782;32.024;2023-06-22T01:29:51;17.48;;;10.63;;
43771;SDS011;59066;54.782;32.024;2023-06-22T01:32:31;14.07;;;10.40;;
43771;SDS011;59066;54.782;32.024;2023-06-22T01:35:03;12.07;;;9.85;;
43771;SDS011;59066;54.782;32.024;2023-06-22T01:37:33;12.35;;;10.15;;
43771;SDS011;59066;54.782;32.024;2023-06-22T01:40:02;19.80;;;10.27;;
43771;SDS011;59066;54.782;32.024;2023-06-22T01:42:32;16.20;;;10.20;;
43771;SDS011;59066;54.782;32.024;2023-06-22T01:45:00;12.75;;;9.48;;
43771;SDS011;59066;54.782;32.024;2023-06-22T01:47:31;16.60;;;10.85;;
43771;SDS011;59066;54.782;32.024;2023-06-22T01:49:59;13.57;;;9.65;;
43771;SDS011;59066;54.782;32.024;2023-06-22T01:52:27;14.15;;;9.30;;
43771;SDS011;59066;54.782;32.024;2023-06-22T01:54:55;16.60;;;10.40;;
43771;SDS011;59066;54.782;32.024;2023-06-22T01:57:24;12.60;;;9.93;;
43771;SDS011;59066;54.782;32.024;2023-06-22T01:59:55;17.05;;;10.20;;
43771;SDS011;59066;54.782;32.024;2023-06-22T02:02:43;11.07;;;8.70;;
43771;SDS011;59066;54.782;32.024;2023-06-22T02:05:32;13.18;;;10.10;;
43771;SDS011;59066;54.782;32.024;2023-06-22T02:08:11;11.15;;;9.25;;
43771;SDS011;59066;54.782;32.024;2023-06-22T02:10:45;13.23;;;10.30;;
43771;SDS011;59066;54.782;32.024;2023-06-22T02:13:13;10.70;;;9.23;;
43771;SDS011;59066;54.782;32.024;2023-06-22T02:15:42;12.05;;;9.43;;
43771;SDS011;59066;54.782;32.024;2023-06-22T02:18:13;11.93;;;10.25;;
43771;SDS011;59066;54.782;32.024;2023-06-22T02:20:41;13.02;;;9.88;;
43771;SDS011;59066;54.782;32.024;2023-06-22T02:23:09;11.07;;;9.52;;
43771;SDS011;59066;54.782;32.024;2023-06-22T02:25:37;14.38;;;9.48;;
43771;SDS011;59066;54.782;32.024;2023-06-22T02:28:05;14.00;;;10.18;;
43771;SDS011;59066;54.782;32.024;2023-06-22T02:30:32;14.88;;;9.55;;
43771;SDS011;59066;54.782;32.024;2023-06-22T02:32:59;19.23;;;10.15;;
43771;SDS011;59066;54.782;32.024;2023-06-22T02:35:27;15.68;;;9.68;;
43771;SDS011;59066;54.782;32.024;2023-06-22T02:37:59;14.15;;;10.75;;
43771;SDS011;59066;54.782;32.024;2023-06-22T02:40:28;15.50;;;11.32;;
43771;SDS011;59066;54.782;32.024;2023-06-22T02:42:58;16.42;;;11.60;;
43771;SDS011;59066;54.782;32.024;2023-06-22T02:45:29;13.77;;;10.25;;
43771;SDS011;59066;54.782;32.024;2023-06-22T02:47:57;13.95;;;10.18;;
43771;SDS011;59066;54.782;32.024;2023-06-22T02:50:25;16.20;;;11.10;;
43771;SDS011;59066;54.782;32.024;2023-06-22T02:52:53;14.98;;;9.50;;
43771;SDS011;59066;54.782;32.024;2023-06-22T02:55:21;12.73;;;10.13;;
43771;SDS011;59066;54.782;32.024;2023-06-22T02:57:56;15.98;;;9.75;;
43771;SDS011;59066;54.782;32.024;2023-06-22T03:00:30;15.07;;;9.45;;
43771;SDS011;59066;54.782;32.024;2023-06-22T03:02:58;16.38;;;10.23;;
43771;SDS011;59066;54.782;32.024;2023-06-22T03:05:26;11.30;;;9.23;;
43771;SDS011;59066;54.782;32.024;2023-06-22T03:07:55;13.23;;;10.80;;
43771;SDS011;59066;54.782;32.024;2023-06-22T03:10:22;12.02;;;10.20;;
43771;SDS011;59066;54.782;32.024;2023-06-22T03:12:50;10.80;;;9.25;;
43771;SDS011;59066;54.782;32.024;2023-06-22T03:15:17;14.55;;;10.48;;
43771;SDS011;59066;54.782;32.024;2023-06-22T03:17:46;13.40;;;10.60;;
43771;SDS011;59066;54.782;32.024;2023-06-22T03:20:14;11.30;;;9.70;;
43771;SDS011;59066;54.782;32.024;2023-06-22T03:22:41;13.60;;;11.38;;
43771;SDS011;59066;54.782;32.024;2023-06-22T03:25:10;13.27;;;10.25;;
43771;SDS011;59066;54.782;32.024;2023-06-22T03:27:42;12.40;;;8.73;;
43771;SDS011;59066;54.782;32.024;2023-06-22T03:30:11;14.65;;;10.45;;
43771;SDS011;59066;54.782;32.024;2023-06-22T03:32:39;12.68;;;8.95;;
43771;SDS011;59066;54.782;32.024;2023-06-22T03:35:06;21.33;;;10.75;;
43771;SDS011;59066;54.782;32.024;2023-06-22T03:37:36;15.50;;;9.70;;
43771;SDS011;59066;54.782;32.024;2023-06-22T03:40:04;13.35;;;9.25;;
43771;SDS011;59066;54.782;32.024;2023-06-22T03:42:34;13.90;;;8.93;;
43771;SDS011;59066;54.782;32.024;2023-06-22T03:45:03;12.25;;;9.88;;
43771;SDS011;59066;54.782;32.024;2023-06-22T03:47:32;16.65;;;9.10;;
43771;SDS011;59066;54.782;32.024;2023-06-22T03:50:00;12.10;;;8.68;;
43771;SDS011;59066;54.782;32.024;2023-06-22T03:52:31;11.65;;;9.02;;
43771;SDS011;59066;54.782;32.024;2023-06-22T03:54:59;9.98;;;8.48;;
43771;SDS011;59066;54.782;32.024;2023-06-22T03:57:29;13.20;;;8.93;;
43771;SDS011;59066;54.782;32.024;2023-06-22T03:59:57;14.18;;;8.93;;
43771;SDS011;59066;54.782;32.024;2023-06-22T04:02:25;13.20;;;8.13;;
43771;SDS011;59066;54.782;32.024;2023-06-22T04:04:53;13.20;;;8.75;;
43771;SDS011;59066;54.782;32.024;2023-06-22T04:07:20;12.70;;;8.88;;
43771;SDS011;59066;54.782;32.024;2023-06-22T04:09:48;16.27;;;9.15;;
43771;SDS011;59066;54.782;32.024;2023-06-22T04:12:15;15.85;;;9.00;;
43771;SDS011;59066;54.782;32.024;2023-06-22T04:14:43;14.13;;;9.18;;
43771;SDS011;59066;54.782;32.024;2023-06-22T04:17:10;14.15;;;8.88;;
43771;SDS011;59066;54.782;32.024;2023-06-22T04:19:41;17.55;;;10.27;;
43771;SDS011;59066;54.782;32.024;2023-06-22T04:22:08;17.98;;;10.50;;
43771;SDS011;59066;54.782;32.024;2023-06-22T04:24:37;13.07;;;9.18;;
43771;SDS011;59066;54.782;32.024;2023-06-22T04:27:04;14.35;;;11.07;;
43771;SDS011;59066;54.782;32.024;2023-06-22T04:29:34;18.75;;;11.38;;
43771;SDS011;59066;54.782;32.024;2023-06-22T04:32:02;14.60;;;10.32;;
43771;SDS011;59066;54.782;32.024;2023-06-22T04:34:32;19.77;;;9.75;;
43771;SDS011;59066;54.782;32.024;2023-06-22T04:36:59;16.42;;;9.55;;
43771;SDS011;59066;54.782;32.024;2023-06-22T04:39:27;15.55;;;9.43;;
43771;SDS011;59066;54.782;32.024;2023-06-22T04:41:54;20.70;;;10.98;;
43771;SDS011;59066;54.782;32.024;2023-06-22T04:44:27;19.58;;;9.90;;
43771;SDS011;59066;54.782;32.024;2023-06-22T04:46:58;19.35;;;10.38;;
43771;SDS011;59066;54.782;32.024;2023-06-22T04:49:35;22.55;;;10.23;;
43771;SDS011;59066;54.782;32.024;2023-06-22T04:52:05;14.98;;;9.88;;
43771;SDS011;59066;54.782;32.024;2023-06-22T04:54:37;15.43;;;8.65;;
43771;SDS011;59066;54.782;32.024;2023-06-22T04:57:07;20.15;;;9.73;;
43771;SDS011;59066;54.782;32.024;2023-06-22T04:59:38;15.13;;;10.07;;
43771;SDS011;59066;54.782;32.024;2023-06-22T05:02:08;16.98;;;9.38;;
43771;SDS011;59066;54.782;32.024;2023-06-22T05:04:36;13.98;;;8.23;;
43771;SDS011;59066;54.782;32.024;2023-06-22T05:07:06;12.27;;;8.55;;
43771;SDS011;59066;54.782;32.024;2023-06-22T05:09:34;10.55;;;7.68;;
43771;SDS011;59066;54.782;32.024;2023-06-22T05:12:02;12.50;;;8.05;;
43771;SDS011;59066;54.782;32.024;2023-06-22T05:14:33;13.57;;;8.00;;
43771;SDS011;59066;54.782;32.024;2023-06-22T05:17:01;14.90;;;8.55;;
43771;SDS011;59066;54.782;32.024;2023-06-22T05:19:30;13.82;;;9.05;;
43771;SDS011;59066;54.782;32.024;2023-06-22T05:22:01;13.98;;;8.60;;
43771;SDS011;59066;54.782;32.024;2023-06-22T05:24:28;16.13;;;7.85;;
43771;SDS011;59066;54.782;32.024;2023-06-22T05:26:56;14.52;;;8.40;;
43771;SDS011;59066;54.782;32.024;2023-06-22T05:29:23;15.20;;;8.95;;
43771;SDS011;59066;54.782;32.024;2023-06-22T05:31:50;13.05;;;8.55;;
43771;SDS011;59066;54.782;32.024;2023-06-22T05:34:18;10.55;;;7.55;;
43771;SDS011;59066;54.782;32.024;2023-06-22T05:36:45;12.10;;;7.10;;
43771;SDS011;59066;54.782;32.024;2023-06-22T05:39:14;15.15;;;7.63;;
43771;SDS011;59066;54.782;32.024;2023-06-22T05:41:42;13.55;;;7.13;;
43771;SDS011;59066;54.782;32.024;2023-06-22T05:44:13;13.13;;;7.63;;
43771;SDS011;59066;54.782;32.024;2023-06-22T05:46:40;9.23;;;6.97;;
43771;SDS011;59066;54.782;32.024;2023-06-22T05:49:13;12.73;;;7.63;;
43771;SDS011;59066;54.782;32.024;2023-06-22T05:51:41;11.90;;;7.38;;
43771;SDS011;59066;54.782;32.024;2023-06-22T05:54:09;13.65;;;8.60;;
43771;SDS011;59066;54.782;32.024;2023-06-22T05:56:37;12.80;;;6.72;;
43771;SDS011;59066;54.782;32.024;2023-06-22T05:59:04;14.73;;;8.10;;
43771;SDS011;59066;54.782;32.024;2023-06-22T06:01:32;11.48;;;7.18;;
43771;SDS011;59066;54.782;32.024;2023-06-22T06:04:03;9.45;;;6.72;;
43771;SDS011;59066;54.782;32.024;2023-06-22T06:06:31;7.85;;;6.47;;
43771;SDS011;59066;54.782;32.024;2023-06-22T06:08:58;11.07;;;7.15;;
43771;SDS011;59066;54.782;32.024;2023-06-22T06:11:26;11.38;;;7.30;;
43771;SDS011;59066;54.782;32.024;2023-06-22T06:13:54;13.30;;;7.38;;
43771;SDS011;59066;54.782;32.024;2023-06-22T06:16:21;12.88;;;7.30;;
43771;SDS011;59066;54.782;32.024;2023-06-22T06:18:49;10.70;;;7.32;;
43771;SDS011;59066;54.782;32.024;2023-06-22T06:21:17;10.88;;;7.63;;
43771;SDS011;59066;54.782;32.024;2023-06-22T06:23:44;8.77;;;5.75;;
43771;SDS011;59066;54.782;32.024;2023-06-22T06:26:12;9.85;;;6.25;;
43771;SDS011;59066;54.782;32.024;2023-06-22T06:28:39;18.70;;;7.30;;
43771;SDS011;59066;54.782;32.024;2023-06-22T06:31:08;10.60;;;6.65;;
43771;SDS011;59066;54.782;32.024;2023-06-22T06:33:36;10.32;;;6.00;;
43771;SDS011;59066;54.782;32.024;2023-06-22T06:36:03;8.40;;;6.18;;
43771;SDS011;59066;54.782;32.024;2023-06-22T06:38:31;9.85;;;6.10;;
43771;SDS011;59066;54.782;32.024;2023-06-22T06:40:58;7.63;;;6.47;;
43771;SDS011;59066;54.782;32.024;2023-06-22T06:43:26;10.32;;;6.63;;
43771;SDS011;59066;54.782;32.024;2023-06-22T06:45:53;7.78;;;6.65;;
43771;SDS011;59066;54.782;32.024;2023-06-22T06:48:21;10.35;;;6.75;;
43771;SDS011;59066;54.782;32.024;2023-06-22T06:50:48;9.40;;;6.35;;
43771;SDS011;59066;54.782;32.024;2023-06-22T06:53:16;9.75;;;6.50;;
43771;SDS011;59066;54.782;32.024;2023-06-22T06:55:47;7.95;;;6.15;;
43771;SDS011;59066;54.782;32.024;2023-06-22T06:58:14;8.40;;;6.25;;
43771;SDS011;59066;54.782;32.024;2023-06-22T07:00:43;8.35;;;6.38;;
43771;SDS011;59066;54.782;32.024;2023-06-22T07:03:10;10.68;;;7.30;;
43771;SDS011;59066;54.782;32.024;2023-06-22T07:05:38;8.88;;;6.72;;
43771;SDS011;59066;54.782;32.024;2023-06-22T07:08:05;9.85;;;6.43;;
43771;SDS011;59066;54.782;32.024;2023-06-22T07:10:33;9.55;;;6.30;;
43771;SDS011;59066;54.782;32.024;2023-06-22T07:13:00;13.45;;;8.05;;
43771;SDS011;59066;54.782;32.024;2023-06-22T07:15:28;8.10;;;5.50;;
43771;SDS011;59066;54.782;32.024;2023-06-22T07:17:55;6.82;;;5.47;;
43771;SDS011;59066;54.782;32.024;2023-06-22T07:20:23;7.88;;;5.70;;
43771;SDS011;59066;54.782;32.024;2023-06-22T07:22:50;9.35;;;6.18;;
43771;SDS011;59066;54.782;32.024;2023-06-22T07:25:18;8.07;;;5.90;;
43771;SDS011;59066;54.782;32.024;2023-06-22T07:27:46;7.28;;;5.63;;
43771;SDS011;59066;54.782;32.024;2023-06-22T07:30:24;7.15;;;5.75;;
43771;SDS011;59066;54.782;32.024;2023-06-22T07:32:52;7.60;;;5.53;;
43771;SDS011;59066;54.782;32.024;2023-06-22T07:35:22;9.20;;;6.32;;
43771;SDS011;59066;54.782;32.024;2023-06-22T07:37:49;8.45;;;5.85;;
43771;SDS011;59066;54.782;32.024;2023-06-22T07:40:17;10.07;;;6.90;;
43771;SDS011;59066;54.782;32.024;2023-06-22T07:42:44;9.23;;;6.82;;
43771;SDS011;59066;54.782;32.024;2023-06-22T07:45:14;11.38;;;6.20;;
43771;SDS011;59066;54.782;32.024;2023-06-22T07:47:42;10.48;;;6.63;;
43771;SDS011;59066;54.782;32.024;2023-06-22T07:50:10;8.07;;;5.90;;
43771;SDS011;59066;54.782;32.024;2023-06-22T07:52:37;10.13;;;7.00;;
43771;SDS011;59066;54.782;32.024;2023-06-22T07:55:05;8.40;;;6.25;;
43771;SDS011;59066;54.782;32.024;2023-06-22T07:57:32;14.85;;;7.80;;
43771;SDS011;59066;54.782;32.024;2023-06-22T08:00:01;13.70;;;9.63;;
43771;SDS011;59066;54.782;32.024;2023-06-22T08:02:38;11.45;;;6.70;;
43771;SDS011;59066;54.782;32.024;2023-06-22T08:05:07;8.43;;;6.00;;
43771;SDS011;59066;54.782;32.024;2023-06-22T08:07:40;9.73;;;6.30;;
43771;SDS011;59066;54.782;32.024;2023-06-22T08:10:11;12.73;;;5.90;;
43771;SDS011;59066;54.782;32.024;2023-06-22T08:12:39;9.43;;;6.63;;
43771;SDS011;59066;54.782;32.024;2023-06-22T08:15:08;8.85;;;6.47;;
43771;SDS011;59066;54.782;32.024;2023-06-22T08:17:37;12.05;;;6.50;;
43771;SDS011;59066;54.782;32.024;2023-06-22T08:20:06;10.50;;;6.95;;
43771;SDS011;59066;54.782;32.024;2023-06-22T08:22:36;9.63;;;5.88;;
43771;SDS011;59066;54.782;32.024;2023-06-22T08:25:04;7.57;;;6.50;;
43771;SDS011;59066;54.782;32.024;2023-06-22T08:27:33;8.57;;;6.20;;
43771;SDS011;59066;54.782;32.024;2023-06-22T08:30:00;7.90;;;5.88;;
43771;SDS011;59066;54.782;32.024;2023-06-22T08:32:29;8.55;;;6.30;;
43771;SDS011;59066;54.782;32.024;2023-06-22T08:34:57;14.48;;;8.35;;
43771;SDS011;59066;54.782;32.024;2023-06-22T08:37:25;8.50;;;6.50;;
43771;SDS011;59066;54.782;32.024;2023-06-22T08:40:01;13.73;;;6.55;;
43771;SDS011;59066;54.782;32.024;2023-06-22T08:42:35;10.15;;;6.30;;
43771;SDS011;59066;54.782;32.024;2023-06-22T08:45:02;8.15;;;6.15;;
43771;SDS011;59066;54.782;32.024;2023-06-22T08:47:31;14.68;;;6.10;;
43771;SDS011;59066;54.782;32.024;2023-06-22T08:49:59;7.72;;;6.32;;
43771;SDS011;59066;54.782;32.024;2023-06-22T08:52:26;8.43;;;5.45;;
43771;SDS011;59066;54.782;32.024;2023-06-22T08:54:54;7.78;;;5.85;;
43771;SDS011;59066;54.782;32.024;2023-06-22T08:57:21;8.35;;;6.47;;
43771;SDS011;59066;54.782;32.024;2023-06-22T08:59:49;9.15;;;6.15;;
43771;SDS011;59066;54.782;32.024;2023-06-22T09:02:19;9.02;;;6.57;;
43771;SDS011;59066;54.782;32.024;2023-06-22T09:04:46;8.52;;;5.55;;
43771;SDS011;59066;54.782;32.024;2023-06-22T09:07:15;9.10;;;6.18;;
43771;SDS011;59066;54.782;32.024;2023-06-22T09:09:49;13.27;;;7.43;;
43771;SDS011;59066;54.782;32.024;2023-06-22T09:12:18;13.05;;;7.38;;
43771;SDS011;59066;54.782;32.024;2023-06-22T09:14:47;13.73;;;8.85;;
43771;SDS011;59066;54.782;32.024;2023-06-22T09:17:14;10.07;;;6.65;;
43771;SDS011;59066;54.782;32.024;2023-06-22T09:19:41;11.13;;;7.07;;
43771;SDS011;59066;54.782;32.024;2023-06-22T09:22:09;8.27;;;6.53;;
43771;SDS011;59066;54.782;32.024;2023-06-22T09:24:36;15.35;;;8.05;;
43771;SDS011;59066;54.782;32.024;2023-06-22T09:27:04;7.57;;;6.38;;
43771;SDS011;59066;54.782;32.024;2023-06-22T09:29:31;11.45;;;6.75;;
43771;SDS011;59066;54.782;32.024;2023-06-22T09:32:00;12.98;;;7.55;;
43771;SDS011;59066;54.782;32.024;2023-06-22T09:34:28;9.32;;;8.02;;
43771;SDS011;59066;54.782;32.024;2023-06-22T09:36:58;10.95;;;6.97;;
43771;SDS011;59066;54.782;32.024;2023-06-22T09:39:27;9.27;;;7.18;;
43771;SDS011;59066;54.782;32.024;2023-06-22T09:41:57;8.88;;;6.80;;
43771;SDS011;59066;54.782;32.024;2023-06-22T09:44:27;8.60;;;6.65;;
43771;SDS011;59066;54.782;32.024;2023-06-22T09:46:54;10.25;;;7.82;;
43771;SDS011;59066;54.782;32.024;2023-06-22T09:49:22;9.43;;;6.90;;
43771;SDS011;59066;54.782;32.024;2023-06-22T09:52:07;10.73;;;6.43;;
43771;SDS011;59066;54.782;32.024;2023-06-22T09:54:35;13.95;;;7.13;;
43771;SDS011;59066;54.782;32.024;2023-06-22T09:57:02;10.85;;;6.75;;
43771;SDS011;59066;54.782;32.024;2023-06-22T09:59:30;7.93;;;6.72;;
43771;SDS011;59066;54.782;32.024;2023-06-22T10:01:57;10.27;;;6.63;;
43771;SDS011;59066;54.782;32.024;2023-06-22T10:04:25;8.10;;;6.50;;
43771;SDS011;59066;54.782;32.024;2023-06-22T10:06:52;10.55;;;7.05;;
43771;SDS011;59066;54.782;32.024;2023-06-22T10:09:20;11.48;;;7.32;;
43771;SDS011;59066;54.782;32.024;2023-06-22T10:11:48;10.13;;;6.88;;
43771;SDS011;59066;54.782;32.024;2023-06-22T10:14:15;12.55;;;6.95;;
43771;SDS011;59066;54.782;32.024;2023-06-22T10:16:43;7.75;;;6.35;;
43771;SDS011;59066;54.782;32.024;2023-06-22T10:19:11;10.27;;;6.50;;
43771;SDS011;59066;54.782;32.024;2023-06-22T10:21:38;7.63;;;6.82;;
43771;SDS011;59066;54.782;32.024;2023-06-22T10:24:06;8.43;;;7.35;;
43771;SDS011;59066;54.782;32.024;2023-06-22T10:26:34;10.32;;;7.05;;
43771;SDS011;59066;54.782;32.024;2023-06-22T10:29:02;10.75;;;7.50;;
43771;SDS011;59066;54.782;32.024;2023-06-22T10:31:41;12.45;;;7.82;;
43771;SDS011;59066;54.782;32.024;2023-06-22T10:34:09;9.55;;;6.35;;
43771;SDS011;59066;54.782;32.024;2023-06-22T10:36:36;9.48;;;8.00;;
43771;SDS011;59066;54.782;32.024;2023-06-22T10:39:04;10.85;;;6.55;;
43771;SDS011;59066;54.782;32.024;2023-06-22T10:41:31;9.35;;;6.97;;
43771;SDS011;59066;54.782;32.024;2023-06-22T10:43:58;9.43;;;6.57;;
43771;SDS011;59066;54.782;32.024;2023-06-22T10:46:26;8.57;;;7.03;;
43771;SDS011;59066;54.782;32.024;2023-06-22T10:48:54;8.25;;;6.90;;
43771;SDS011;59066;54.782;32.024;2023-06-22T10:51:24;9.05;;;6.75;;
43771;SDS011;59066;54.782;32.024;2023-06-22T10:53:52;7.75;;;6.95;;
43771;SDS011;59066;54.782;32.024;2023-06-22T10:56:20;8.05;;;6.65;;
43771;SDS011;59066;54.782;32.024;2023-06-22T10:58:47;11.95;;;8.10;;
43771;SDS011;59066;54.782;32.024;2023-06-22T11:01:14;8.52;;;6.93;;
43771;SDS011;59066;54.782;32.024;2023-06-22T11:03:59;10.43;;;7.37;;
43771;SDS011;59066;54.782;32.024;2023-06-22T11:06:27;13.77;;;7.72;;
43771;SDS011;59066;54.782;32.024;2023-06-22T11:08:54;10.43;;;7.18;;
43771;SDS011;59066;54.782;32.024;2023-06-22T11:11:29;14.18;;;8.57;;
43771;SDS011;59066;54.782;32.024;2023-06-22T11:13:56;41.80;;;9.07;;
43771;SDS011;59066;54.782;32.024;2023-06-22T11:16:24;22.33;;;8.32;;
43771;SDS011;59066;54.782;32.024;2023-06-22T11:18:51;55.05;;;11.65;;
43771;SDS011;59066;54.782;32.024;2023-06-22T11:21:19;10.05;;;7.47;;
43771;SDS011;59066;54.782;32.024;2023-06-22T11:23:46;12.15;;;8.05;;
43771;SDS011;59066;54.782;32.024;2023-06-22T11:26:14;11.77;;;8.73;;
43771;SDS011;59066;54.782;32.024;2023-06-22T11:28:41;10.25;;;8.13;;
43771;SDS011;59066;54.782;32.024;2023-06-22T11:31:09;10.00;;;7.80;;
43771;SDS011;59066;54.782;32.024;2023-06-22T11:33:51;10.90;;;7.32;;
43771;SDS011;59066;54.782;32.024;2023-06-22T11:36:18;10.93;;;7.72;;
43771;SDS011;59066;54.782;32.024;2023-06-22T11:38:46;13.93;;;7.70;;
43771;SDS011;59066;54.782;32.024;2023-06-22T11:41:14;12.82;;;8.65;;
43771;SDS011;59066;54.782;32.024;2023-06-22T11:43:41;41.42;;;10.30;;
43771;SDS011;59066;54.782;32.024;2023-06-22T11:46:08;30.60;;;10.13;;
43771;SDS011;59066;54.782;32.024;2023-06-22T11:48:37;36.28;;;10.02;;
43771;SDS011;59066;54.782;32.024;2023-06-22T11:51:04;18.77;;;10.70;;
43771;SDS011;59066;54.782;32.024;2023-06-22T11:53:33;19.63;;;11.77;;
43771;SDS011;59066;54.782;32.024;2023-06-22T11:56:03;16.08;;;10.75;;
43771;SDS011;59066;54.782;32.024;2023-06-22T11:58:31;24.60;;;13.18;;
43771;SDS011;59066;54.782;32.024;2023-06-22T12:00:59;17.60;;;12.50;;
43771;SDS011;59066;54.782;32.024;2023-06-22T12:03:26;21.55;;;14.43;;
43771;SDS011;59066;54.782;32.024;2023-06-22T12:05:54;22.50;;;14.82;;
43771;SDS011;59066;54.782;32.024;2023-06-22T12:08:21;18.33;;;14.52;;
43771;SDS011;59066;54.782;32.024;2023-06-22T12:10:49;24.70;;;16.48;;
43771;SDS011;59066;54.782;32.024;2023-06-22T12:13:17;18.52;;;14.15;;
43771;SDS011;59066;54.782;32.024;2023-06-22T12:15:44;15.88;;;12.52;;
43771;SDS011;59066;54.782;32.024;2023-06-22T12:18:12;30.23;;;19.88;;
43771;SDS011;59066;54.782;32.024;2023-06-22T12:20:41;30.20;;;19.58;;
43771;SDS011;59066;54.782;32.024;2023-06-22T12:23:09;21.52;;;15.68;;
43771;SDS011;59066;54.782;32.024;2023-06-22T12:25:36;19.10;;;14.85;;
43771;SDS011;59066;54.782;32.024;2023-06-22T12:28:04;18.95;;;17.05;;
43771;SDS011;59066;54.782;32.024;2023-06-22T12:30:34;22.00;;;15.82;;
43771;SDS011;59066;54.782;32.024;2023-06-22T12:33:02;17.30;;;15.50;;
43771;SDS011;59066;54.782;32.024;2023-06-22T12:35:29;19.25;;;14.68;;
43771;SDS011;59066;54.782;32.024;2023-06-22T12:37:57;17.75;;;14.65;;
43771;SDS011;59066;54.782;32.024;2023-06-22T12:40:25;18.80;;;14.27;;
43771;SDS011;59066;54.782;32.024;2023-06-22T12:42:52;18.77;;;15.52;;
43771;SDS011;59066;54.782;32.024;2023-06-22T12:45:20;16.45;;;14.85;;
43771;SDS011;59066;54.782;32.024;2023-06-22T12:47:48;16.95;;;15.20;;
43771;SDS011;59066;54.782;32.024;2023-06-22T12:50:17;15.43;;;13.55;;
43771;SDS011;59066;54.782;32.024;2023-06-22T12:52:44;18.80;;;13.60;;
43771;SDS011;59066;54.782;32.024;2023-06-22T12:55:12;16.35;;;12.43;;
43771;SDS011;59066;54.782;32.024;2023-06-22T12:57:39;16.10;;;11.93;;
43771;SDS011;59066;54.782;32.024;2023-06-22T13:00:07;14.20;;;11.45;;
43771;SDS011;59066;54.782;32.024;2023-06-22T13:02:37;19.42;;;13.88;;
43771;SDS011;59066;54.782;32.024;2023-06-22T13:05:05;17.35;;;15.50;;
43771;SDS011;59066;54.782;32.024;2023-06-22T13:07:32;18.85;;;13.10;;
43771;SDS011;59066;54.782;32.024;2023-06-22T13:10:00;17.38;;;13.15;;
43771;SDS011;59066;54.782;32.024;2023-06-22T13:12:27;16.63;;;14.55;;
43771;SDS011;59066;54.782;32.024;2023-06-22T13:14:55;21.75;;;15.20;;
43771;SDS011;59066;54.782;32.024;2023-06-22T13:17:23;16.17;;;14.50;;
43771;SDS011;59066;54.782;32.024;2023-06-22T13:19:50;19.88;;;14.60;;
43771;SDS011;59066;54.782;32.024;2023-06-22T13:22:26;20.08;;;15.82;;
43771;SDS011;59066;54.782;32.024;2023-06-22T13:25:07;24.40;;;17.80;;
43771;SDS011;59066;54.782;32.024;2023-06-22T13:27:39;25.30;;;17.52;;
43771;SDS011;59066;54.782;32.024;2023-06-22T13:30:08;19.98;;;16.95;;
43771;SDS011;59066;54.782;32.024;2023-06-22T13:32:39;18.38;;;16.20;;
43771;SDS011;59066;54.782;32.024;2023-06-22T13:35:09;19.15;;;16.05;;
43771;SDS011;59066;54.782;32.024;2023-06-22T13:37:37;14.93;;;13.40;;
43771;SDS011;59066;54.782;32.024;2023-06-22T13:40:05;15.80;;;13.10;;
43771;SDS011;59066;54.782;32.024;2023-06-22T13:42:34;15.98;;;14.13;;
43771;SDS011;59066;54.782;32.024;2023-06-22T13:45:02;17.65;;;14.15;;
43771;SDS011;59066;54.782;32.024;2023-06-22T13:47:29;16.98;;;14.00;;
43771;SDS011;59066;54.782;32.024;2023-06-22T13:49:58;17.13;;;14.60;;
43771;SDS011;59066;54.782;32.024;2023-06-22T13:52:25;16.42;;;14.73;;
43771;SDS011;59066;54.782;32.024;2023-06-22T13:54:53;17.15;;;15.00;;
43771;SDS011;59066;54.782;32.024;2023-06-22T13:57:20;15.70;;;13.38;;
43771;SDS011;59066;54.782;32.024;2023-06-22T13:59:48;16.85;;;13.55;;
43771;SDS011;59066;54.782;32.024;2023-06-22T14:02:15;15.98;;;14.30;;
43771;SDS011;59066;54.782;32.024;2023-06-22T14:04:42;17.52;;;13.15;;
43771;SDS011;59066;54.782;32.024;2023-06-22T14:07:10;16.02;;;14.45;;
43771;SDS011;59066;54.782;32.024;2023-06-22T14:09:40;14.68;;;12.82;;
43771;SDS011;59066;54.782;32.024;2023-06-22T14:12:07;14.38;;;12.80;;
43771;SDS011;59066;54.782;32.024;2023-06-22T14:14:35;13.88;;;11.93;;
43771;SDS011;59066;54.782;32.024;2023-06-22T14:17:03;18.25;;;13.45;;
43771;SDS011;59066;54.782;32.024;2023-06-22T14:19:31;15.00;;;12.68;;
43771;SDS011;59066;54.782;32.024;2023-06-22T14:21:58;18.08;;;12.43;;
43771;SDS011;59066;54.782;32.024;2023-06-22T14:24:26;14.32;;;11.23;;
43771;SDS011;59066;54.782;32.024;2023-06-22T14:26:55;16.20;;;12.27;;
43771;SDS011;59066;54.782;32.024;2023-06-22T14:29:23;14.05;;;10.95;;
43771;SDS011;59066;54.782;32.024;2023-06-22T14:31:50;18.95;;;10.95;;
43771;SDS011;59066;54.782;32.024;2023-06-22T14:34:18;18.60;;;11.32;;
43771;SDS011;59066;54.782;32.024;2023-06-22T14:36:45;16.20;;;10.65;;
43771;SDS011;59066;54.782;32.024;2023-06-22T14:39:12;12.63;;;10.55;;
43771;SDS011;59066;54.782;32.024;2023-06-22T14:41:40;14.55;;;11.82;;
43771;SDS011;59066;54.782;32.024;2023-06-22T14:44:07;15.55;;;11.88;;